createdAt,value
2019-05-23T00:00:32.494Z,8.60
2019-05-23T00:05:53.208Z,8.60
2019-05-23T00:11:22.288Z,8.50
2019-05-23T00:16:28.480Z,8.50
2019-05-23T00:21:34.920Z,8.40
2019-05-23T00:26:41.377Z,8.30
2019-05-23T00:31:50.692Z,8.30
2019-05-23T00:37:02.645Z,8.20
2019-05-23T00:42:07.899Z,8.10
2019-05-23T00:47:13.657Z,8.00
2019-05-23T00:52:18.059Z,8.00
2019-05-23T00:57:24.557Z,7.90
2019-05-23T01:02:32.161Z,7.90
2019-05-23T01:07:38.444Z,7.80
2019-05-23T01:12:47.589Z,7.70
2019-05-23T01:17:53.766Z,7.70
2019-05-23T01:23:18.617Z,7.60
2019-05-23T01:28:24.283Z,7.50
2019-05-23T01:33:30.898Z,7.40
2019-05-23T01:38:39.046Z,7.40
2019-05-23T01:43:44.089Z,7.30
2019-05-23T01:48:48.805Z,7.20
2019-05-23T01:53:54.836Z,7.10
2019-05-23T01:58:59.134Z,7.10
2019-05-23T02:04:04.328Z,7.10
2019-05-23T02:09:09.206Z,7.00
2019-05-23T02:14:15.051Z,7.00
2019-05-23T02:19:22.036Z,6.90
2019-05-23T02:24:27.743Z,6.80
2019-05-23T02:29:32.307Z,6.80
2019-05-23T02:34:37.786Z,6.80
2019-05-23T02:39:54.413Z,6.80
2019-05-23T02:44:59.492Z,6.80
2019-05-23T02:50:07.433Z,6.80
2019-05-23T02:55:22.523Z,6.70
2019-05-23T03:00:54.825Z,6.70
2019-05-23T03:05:57.594Z,6.70
2019-05-23T03:11:19.005Z,6.60
2019-05-23T03:16:35.267Z,6.60
2019-05-23T03:21:41.521Z,6.60
2019-05-23T03:27:20.505Z,6.50
2019-05-23T03:32:38.009Z,6.50
2019-05-23T03:37:42.454Z,6.40
2019-05-23T03:42:49.895Z,6.30
2019-05-23T03:48:01.292Z,6.30
2019-05-23T03:53:07.664Z,6.30
2019-05-23T03:58:14.009Z,6.20
2019-05-23T04:03:19.403Z,6.40
2019-05-23T04:08:25.858Z,6.60
2019-05-23T04:13:31.427Z,6.90
2019-05-23T04:18:38.769Z,7.20
2019-05-23T04:23:43.068Z,7.40
2019-05-23T04:28:47.673Z,8.00
2019-05-23T04:33:50.810Z,8.70
2019-05-23T04:38:55.257Z,9.40
2019-05-23T04:43:59.569Z,9.90
2019-05-23T04:49:05.480Z,10.40
2019-05-23T04:54:11.557Z,10.50
2019-05-23T04:59:17.110Z,11.00
2019-05-23T05:04:23.179Z,11.70
2019-05-23T05:09:43.313Z,12.10
2019-05-23T05:14:47.672Z,12.20
2019-05-23T05:19:52.203Z,12.40
2019-05-23T05:24:59.148Z,12.80
2019-05-23T05:30:03.928Z,13.20
2019-05-23T05:35:11.502Z,14.20
2019-05-23T05:40:15.925Z,15.30
2019-05-23T05:45:20.586Z,15.90
2019-05-23T05:50:26.268Z,16.00
2019-05-23T05:55:30.738Z,16.50
2019-05-23T06:00:50.115Z,16.70
2019-05-23T06:06:11.983Z,16.40
2019-05-23T06:11:18.781Z,16.20
2019-05-23T06:16:23.286Z,16.40
2019-05-23T06:21:30.801Z,17.20
2019-05-23T06:26:35.821Z,18.10
2019-05-23T06:31:40.812Z,18.60
2019-05-23T06:36:46.496Z,18.70
2019-05-23T06:41:50.817Z,18.50
2019-05-23T06:46:55.219Z,19.10
2019-05-23T06:51:59.293Z,19.90
2019-05-23T06:57:03.922Z,20.50
2019-05-23T07:02:07.380Z,20.50
2019-05-23T07:07:13.051Z,20.70
2019-05-23T07:12:17.387Z,20.60
2019-05-23T07:17:22.309Z,21.20
2019-05-23T07:22:29.347Z,22.10
2019-05-23T07:27:36.188Z,22.60
2019-05-23T07:32:40.366Z,23.30
2019-05-23T07:37:44.547Z,23.80
2019-05-23T07:42:49.319Z,23.70
2019-05-23T07:47:56.728Z,23.90
2019-05-23T07:53:00.885Z,24.10
2019-05-23T07:58:06.972Z,24.10
2019-05-23T08:03:13.749Z,23.80
2019-05-23T08:08:21.962Z,23.20
2019-05-23T08:13:28.618Z,23.50
2019-05-23T08:18:32.743Z,24.20
2019-05-23T08:23:36.871Z,25.40
2019-05-23T08:28:56.645Z,26.50
2019-05-23T08:33:46.905Z,27.30
2019-05-23T08:38:50.990Z,27.40
2019-05-23T08:43:58.294Z,27.20
2019-05-23T08:49:03.465Z,27.10
2019-05-23T08:54:10.705Z,26.60
2019-05-23T08:59:16.084Z,26.60
2019-05-23T09:04:21.377Z,27.10
2019-05-23T09:09:30.454Z,27.20
2019-05-23T09:14:32.143Z,27.30
2019-05-23T09:19:35.326Z,27.30
2019-05-23T09:24:39.456Z,27.60
2019-05-23T09:29:44.070Z,27.70
2019-05-23T09:34:48.634Z,27.90
2019-05-23T09:39:55.543Z,27.80
2019-05-23T09:45:01.286Z,27.90
2019-05-23T09:50:07.155Z,27.80
2019-05-23T09:55:11.936Z,27.70
2019-05-23T10:00:19.516Z,27.80
2019-05-23T10:05:41.008Z,27.90
2019-05-23T10:10:32.403Z,28.10
2019-05-23T10:15:46.347Z,28.10
2019-05-23T10:20:50.676Z,28.30
2019-05-23T10:25:55.882Z,28.10
2019-05-23T10:31:00.075Z,28.00
2019-05-23T10:36:21.705Z,28.00
2019-05-23T10:41:29.162Z,27.90
2019-05-23T10:46:33.296Z,27.80
2019-05-23T10:51:37.628Z,27.50
2019-05-23T10:56:40.751Z,27.40
2019-05-23T11:01:45.681Z,27.30
2019-05-23T11:06:52.255Z,27.30
2019-05-23T11:11:58.146Z,27.40
2019-05-23T11:17:02.666Z,27.30
2019-05-23T11:22:07.887Z,27.20
2019-05-23T11:27:12.047Z,27.00
2019-05-23T11:32:20.438Z,27.00
2019-05-23T11:37:25.778Z,26.80
2019-05-23T11:42:31.637Z,26.60
2019-05-23T11:47:37.640Z,26.50
2019-05-23T11:52:41.938Z,26.40
2019-05-23T11:57:46.462Z,26.20
2019-05-23T12:02:51.034Z,25.90
2019-05-23T12:07:55.216Z,25.50
2019-05-23T12:12:59.727Z,25.00
2019-05-23T12:18:05.347Z,24.70
2019-05-23T12:23:10.982Z,24.30
2019-05-23T12:28:15.462Z,24.10
2019-05-23T12:33:19.705Z,24.00
2019-05-23T12:38:26.250Z,23.90
2019-05-23T12:43:30.781Z,23.80
2019-05-23T12:48:45.287Z,23.90
2019-05-23T12:53:52.222Z,23.90
2019-05-23T12:58:59.144Z,23.90
2019-05-23T13:04:04.649Z,23.90
2019-05-23T13:09:09.940Z,23.70
2019-05-23T13:14:14.940Z,23.70
2019-05-23T13:19:19.176Z,23.60
2019-05-23T13:24:22.629Z,23.40
2019-05-23T13:29:28.799Z,23.50
2019-05-23T13:34:34.564Z,23.50
2019-05-23T13:39:42.076Z,23.60
2019-05-23T13:44:48.875Z,23.60
2019-05-23T13:49:55.395Z,23.70
2019-05-23T13:55:01.201Z,23.70
2019-05-23T14:00:06.536Z,23.70
2019-05-23T14:05:12.548Z,23.80
2019-05-23T14:10:18.581Z,23.80
2019-05-23T14:15:31.860Z,23.90
2019-05-23T14:20:36.408Z,23.90
2019-05-23T14:25:44.765Z,23.80
2019-05-23T14:31:14.535Z,23.70
2019-05-23T14:36:36.683Z,23.60
2019-05-23T14:41:49.542Z,23.60
2019-05-23T14:47:19.491Z,23.50
2019-05-23T14:52:29.307Z,23.50
2019-05-23T14:57:37.819Z,23.50
2019-05-23T15:02:45.140Z,23.40
2019-05-23T15:07:52.970Z,23.40
2019-05-23T15:12:57.992Z,23.50
2019-05-23T15:18:02.216Z,23.50
2019-05-23T15:23:06.378Z,23.50
2019-05-23T15:28:10.937Z,23.50
2019-05-23T15:33:18.395Z,23.40
2019-05-23T15:38:35.509Z,23.40
2019-05-23T15:43:46.596Z,23.30
2019-05-23T15:48:51.290Z,23.20
2019-05-23T15:54:02.174Z,23.00
2019-05-23T15:59:22.973Z,22.90
2019-05-23T16:04:27.696Z,22.80
2019-05-23T16:09:36.043Z,22.80
2019-05-23T16:14:42.613Z,22.80
2019-05-23T16:19:50.649Z,22.70
2019-05-23T16:24:56.376Z,22.60
2019-05-23T16:30:00.826Z,22.50
2019-05-23T16:35:07.369Z,22.30
2019-05-23T16:40:12.262Z,22.20
2019-05-23T16:45:36.584Z,22.00
2019-05-23T16:50:40.754Z,22.00
2019-05-23T16:55:53.775Z,21.90
2019-05-23T17:01:24.068Z,21.80
2019-05-23T17:06:36.578Z,21.70
2019-05-23T17:11:58.567Z,21.50
2019-05-23T17:17:36.442Z,21.40
2019-05-23T17:22:45.813Z,21.20
2019-05-23T17:28:11.794Z,21.10
2019-05-23T17:33:17.999Z,20.90
2019-05-23T17:38:22.777Z,20.70
2019-05-23T17:43:27.151Z,20.50
2019-05-23T17:48:31.652Z,20.20
2019-05-23T17:53:35.788Z,20.00
2019-05-23T17:58:40.540Z,19.80
2019-05-23T18:03:44.901Z,19.50
2019-05-23T18:08:50.155Z,19.30
2019-05-23T18:13:57.129Z,19.10
2019-05-23T18:19:02.605Z,18.90
2019-05-23T18:24:08.482Z,18.60
2019-05-23T18:29:12.657Z,18.30
2019-05-23T18:34:17.763Z,18.00
2019-05-23T18:39:22.805Z,17.70
2019-05-23T18:44:27.518Z,17.40
2019-05-23T18:49:31.732Z,17.20
2019-05-23T18:54:35.914Z,17.00
2019-05-23T18:59:40.313Z,16.80
2019-05-23T19:04:47.494Z,16.60
2019-05-23T19:09:51.328Z,16.40
2019-05-23T19:14:55.327Z,16.20
2019-05-23T19:20:00.379Z,16.00
2019-05-23T19:25:06.749Z,15.80
2019-05-23T19:30:12.136Z,15.70
2019-05-23T19:35:16.252Z,15.40
2019-05-23T19:40:24.153Z,15.30
2019-05-23T19:45:31.797Z,15.10
2019-05-23T19:50:37.766Z,14.90
2019-05-23T19:55:42.499Z,14.80
2019-05-23T20:00:47.981Z,14.50
2019-05-23T20:05:53.311Z,14.40
2019-05-23T20:10:57.315Z,14.20
2019-05-23T20:16:01.835Z,14.10
2019-05-23T20:21:06.051Z,13.90
2019-05-23T20:26:13.087Z,13.80
2019-05-23T20:31:18.418Z,13.70
2019-05-23T20:36:22.583Z,13.60
2019-05-23T20:41:27.713Z,13.50
2019-05-23T20:46:33.598Z,13.40
2019-05-23T20:51:38.500Z,13.30
2019-05-23T20:56:45.651Z,13.10
2019-05-23T21:01:50.929Z,13.00
2019-05-23T21:06:55.075Z,12.90
2019-05-23T21:11:59.309Z,12.80
2019-05-23T21:17:03.790Z,12.70
2019-05-23T21:22:11.334Z,12.50
2019-05-23T21:27:15.813Z,12.40
2019-05-23T21:32:20.056Z,12.30
2019-05-23T21:37:24.172Z,12.40
2019-05-23T21:42:28.285Z,12.40
2019-05-23T21:47:32.462Z,12.50
2019-05-23T21:52:36.906Z,12.50
2019-05-23T21:57:41.331Z,12.50
2019-05-23T22:02:47.200Z,12.40
2019-05-23T22:07:52.349Z,12.30
2019-05-23T22:13:04.386Z,12.10
2019-05-23T22:18:05.987Z,11.90
2019-05-23T22:23:10.084Z,11.70
2019-05-23T22:28:14.160Z,11.50
2019-05-23T22:33:20.582Z,11.40
2019-05-23T22:38:24.805Z,11.20
2019-05-23T22:43:28.977Z,11.10
2019-05-23T22:48:33.047Z,10.90
2019-05-23T22:53:37.309Z,10.80
2019-05-23T22:58:41.399Z,10.80
2019-05-23T23:03:45.649Z,10.70
2019-05-23T23:08:50.128Z,10.60
2019-05-23T23:13:54.298Z,10.60
2019-05-23T23:18:58.541Z,10.50
2019-05-23T23:24:03.147Z,10.40
2019-05-23T23:29:07.130Z,10.40
2019-05-23T23:34:11.744Z,10.30
2019-05-23T23:39:17.641Z,10.20
2019-05-23T23:44:23.009Z,10.10
2019-05-23T23:49:44.856Z,10.00
2019-05-23T23:55:07.869Z,9.90
